createdAt,value
2023-04-21T00:01:43.894Z,1.83
2023-04-21T00:04:13.517Z,1.80
2023-04-21T00:06:41.689Z,1.63
2023-04-21T00:09:09.736Z,1.77
2023-04-21T00:11:36.870Z,1.77
2023-04-21T00:14:03.842Z,1.70
2023-04-21T00:16:30.903Z,1.77
2023-04-21T00:18:58.371Z,1.73
2023-04-21T00:21:25.349Z,1.63
2023-04-21T00:23:52.358Z,1.80
2023-04-21T00:26:20.876Z,1.80
2023-04-21T00:28:47.783Z,1.83
2023-04-21T00:31:14.756Z,1.70
2023-04-21T00:33:41.667Z,1.60
2023-04-21T00:36:08.686Z,1.20
2023-04-21T00:38:35.649Z,1.80
2023-04-21T00:41:02.712Z,1.70
2023-04-21T00:43:29.724Z,1.60
2023-04-21T00:45:56.772Z,2.50
2023-04-21T00:48:23.660Z,1.90
2023-04-21T00:50:50.740Z,1.50
2023-04-21T00:53:18.270Z,1.80
2023-04-21T00:55:45.846Z,1.77
2023-04-21T00:58:12.798Z,1.60
2023-04-21T01:00:39.863Z,1.80
2023-04-21T01:03:08.155Z,1.73
2023-04-21T01:05:36.080Z,1.90
2023-04-21T01:08:02.963Z,1.87
2023-04-21T01:10:30.099Z,1.80
2023-04-21T01:12:57.009Z,2.17
2023-04-21T01:15:24.008Z,1.97
2023-04-21T01:17:54.141Z,1.77
2023-04-21T01:20:21.238Z,1.87
2023-04-21T01:22:49.964Z,2.07
2023-04-21T01:25:18.521Z,1.57
2023-04-21T01:27:45.704Z,1.97
2023-04-21T01:30:12.802Z,1.90
2023-04-21T01:32:39.696Z,1.80
2023-04-21T01:35:07.137Z,1.73
2023-04-21T01:37:35.054Z,2.13
2023-04-21T01:40:06.129Z,2.00
2023-04-21T01:42:35.008Z,2.17
2023-04-21T01:45:02.118Z,1.80
2023-04-21T01:47:29.253Z,1.97
2023-04-21T01:49:56.218Z,2.03
2023-04-21T01:52:23.194Z,1.57
2023-04-21T01:54:50.457Z,1.60
2023-04-21T01:57:17.989Z,1.83
2023-04-21T01:59:45.205Z,2.10
2023-04-21T02:02:12.195Z,2.10
2023-04-21T02:04:39.478Z,2.03
2023-04-21T02:07:06.727Z,2.40
2023-04-21T02:09:33.743Z,2.10
2023-04-21T02:12:01.944Z,2.27
2023-04-21T02:14:28.917Z,2.37
2023-04-21T02:16:56.309Z,1.70
2023-04-21T02:19:23.803Z,2.23
2023-04-21T02:21:50.791Z,2.43
2023-04-21T02:24:17.811Z,2.00
2023-04-21T02:26:44.759Z,2.00
2023-04-21T02:29:11.634Z,1.87
2023-04-21T02:31:53.828Z,2.17
2023-04-21T02:34:24.632Z,1.97
2023-04-21T02:36:51.590Z,2.03
2023-04-21T02:39:18.764Z,1.73
2023-04-21T02:41:45.842Z,2.10
2023-04-21T02:44:12.719Z,2.10
2023-04-21T02:46:43.491Z,2.10
2023-04-21T02:49:11.103Z,2.20
2023-04-21T02:51:38.119Z,2.13
2023-04-21T02:54:05.240Z,2.47
2023-04-21T02:56:34.666Z,2.17
2023-04-21T02:59:01.674Z,2.63
2023-04-21T03:01:28.669Z,2.37
2023-04-21T03:03:55.770Z,2.40
2023-04-21T03:06:22.719Z,2.47
2023-04-21T03:08:49.632Z,2.63
2023-04-21T03:11:16.634Z,2.33
2023-04-21T03:13:43.600Z,1.93
2023-04-21T03:16:10.583Z,2.27
2023-04-21T03:18:37.752Z,2.70
2023-04-21T03:21:04.737Z,2.40
2023-04-21T03:23:31.679Z,2.57
2023-04-21T03:25:58.618Z,2.50
2023-04-21T03:28:25.564Z,2.77
2023-04-21T03:30:52.543Z,2.30
2023-04-21T03:33:19.449Z,2.30
2023-04-21T03:35:46.362Z,3.07
2023-04-21T03:38:13.363Z,2.70
2023-04-21T03:40:40.266Z,2.47
2023-04-21T03:43:07.187Z,2.53
2023-04-21T03:45:36.201Z,2.30
2023-04-21T03:48:03.872Z,3.10
2023-04-21T03:50:31.084Z,2.70
2023-04-21T03:52:58.050Z,2.10
2023-04-21T03:55:25.007Z,2.30
2023-04-21T03:57:51.919Z,2.53
2023-04-21T04:00:18.920Z,2.30
2023-04-21T04:02:45.993Z,2.73
2023-04-21T04:05:13.236Z,2.43
2023-04-21T04:07:40.331Z,3.23
2023-04-21T04:10:07.342Z,2.30
2023-04-21T04:12:34.219Z,2.93
2023-04-21T04:15:01.548Z,2.50
2023-04-21T04:17:28.574Z,2.43
2023-04-21T04:19:55.542Z,2.23
2023-04-21T04:22:22.460Z,2.17
2023-04-21T04:24:49.332Z,2.73
2023-04-21T04:27:16.719Z,2.43
2023-04-21T04:29:44.027Z,2.40
2023-04-21T04:32:11.229Z,2.73
2023-04-21T04:34:38.721Z,1.90
2023-04-21T04:37:06.681Z,2.40
2023-04-21T04:39:33.827Z,2.30
2023-04-21T04:42:01.527Z,2.30
2023-04-21T04:44:28.520Z,2.20
2023-04-21T04:46:56.614Z,2.10
2023-04-21T04:49:24.257Z,1.87
2023-04-21T04:51:51.563Z,2.00
2023-04-21T04:54:18.629Z,2.03
2023-04-21T04:56:46.161Z,1.80
2023-04-21T04:59:13.172Z,2.10
2023-04-21T05:01:42.078Z,2.10
2023-04-21T05:04:09.326Z,2.47
2023-04-21T05:06:36.390Z,1.63
2023-04-21T05:09:04.986Z,1.80
2023-04-21T05:11:32.152Z,2.00
2023-04-21T05:13:59.275Z,1.70
2023-04-21T05:16:26.308Z,1.67
2023-04-21T05:18:55.942Z,1.90
2023-04-21T05:21:31.706Z,1.60
2023-04-21T05:23:59.439Z,2.00
2023-04-21T05:26:27.801Z,1.57
2023-04-21T05:28:58.800Z,1.50
2023-04-21T05:31:25.937Z,1.60
2023-04-21T05:33:53.271Z,1.60
2023-04-21T05:36:20.555Z,1.90
2023-04-21T05:38:47.674Z,1.27
2023-04-21T05:41:14.647Z,1.20
2023-04-21T05:43:41.611Z,1.50
2023-04-21T05:46:11.687Z,1.37
2023-04-21T05:48:38.719Z,1.50
2023-04-21T05:51:12.862Z,1.30
2023-04-21T05:53:42.563Z,1.40
2023-04-21T05:56:10.544Z,1.10
2023-04-21T05:58:38.250Z,1.83
2023-04-21T06:01:08.830Z,1.53
2023-04-21T06:03:36.133Z,1.50
2023-04-21T06:06:04.757Z,1.50
2023-04-21T06:08:32.090Z,1.50
2023-04-21T06:10:59.154Z,1.40
2023-04-21T06:13:27.558Z,1.50
2023-04-21T06:15:55.479Z,1.33
2023-04-21T06:18:22.675Z,1.47
2023-04-21T06:20:53.482Z,1.47
2023-04-21T06:23:21.257Z,1.23
2023-04-21T06:25:59.264Z,0.97
2023-04-21T06:28:26.270Z,1.40
2023-04-21T06:30:53.339Z,1.10
2023-04-21T06:33:20.309Z,0.93
2023-04-21T06:35:47.218Z,1.00
2023-04-21T06:38:14.108Z,1.20
2023-04-21T06:40:41.331Z,1.17
2023-04-21T06:43:08.929Z,1.47
2023-04-21T06:45:35.960Z,0.80
2023-04-21T06:48:03.053Z,1.20
2023-04-21T06:50:30.031Z,0.90
2023-04-21T06:52:57.014Z,0.80
2023-04-21T06:55:24.381Z,0.90
2023-04-21T06:57:51.320Z,1.30
2023-04-21T07:00:18.403Z,1.17
2023-04-21T07:02:45.407Z,1.20
2023-04-21T07:05:12.584Z,0.90
2023-04-21T07:07:39.502Z,0.90
2023-04-21T07:10:07.237Z,0.80
2023-04-21T07:12:34.223Z,1.00
2023-04-21T07:15:01.209Z,1.00
2023-04-21T07:17:28.166Z,0.80
2023-04-21T07:19:55.095Z,0.93
2023-04-21T07:22:22.078Z,0.83
2023-04-21T07:24:49.598Z,0.80
2023-04-21T07:27:19.102Z,0.90
2023-04-21T07:29:46.064Z,1.43
2023-04-21T07:32:13.004Z,1.00
2023-04-21T07:34:40.282Z,0.80
2023-04-21T07:37:07.235Z,0.70
2023-04-21T07:39:34.186Z,0.70
2023-04-21T07:42:01.158Z,0.70
2023-04-21T07:44:29.482Z,0.80
2023-04-21T07:46:56.527Z,0.90
2023-04-21T07:49:23.809Z,0.97
2023-04-21T07:51:51.004Z,0.63
2023-04-21T07:54:18.036Z,0.70
2023-04-21T07:56:44.954Z,1.03
2023-04-21T07:59:11.940Z,0.83
2023-04-21T08:01:39.090Z,0.67
2023-04-21T08:04:06.756Z,0.70
2023-04-21T08:06:35.323Z,0.67
2023-04-21T08:09:02.251Z,0.80
2023-04-21T08:11:29.216Z,0.63
2023-04-21T08:13:57.638Z,0.87
2023-04-21T08:16:24.730Z,0.50
2023-04-21T08:18:51.705Z,1.07
2023-04-21T08:21:18.815Z,0.50
2023-04-21T08:23:45.725Z,0.73
2023-04-21T08:26:13.313Z,0.60
2023-04-21T08:28:40.443Z,0.70
2023-04-21T08:31:07.546Z,1.00
2023-04-21T08:33:34.846Z,0.80
2023-04-21T08:36:09.826Z,0.50
2023-04-21T08:38:45.105Z,0.50
2023-04-21T08:41:13.417Z,0.60
2023-04-21T08:43:40.444Z,0.63
2023-04-21T08:46:09.156Z,0.70
2023-04-21T08:48:38.034Z,0.67
2023-04-21T08:51:09.808Z,0.50
2023-04-21T08:53:37.484Z,0.60
2023-04-21T08:56:11.249Z,0.60
2023-04-21T08:58:38.902Z,0.68
2023-04-21T09:01:06.222Z,0.50
2023-04-21T09:03:33.541Z,0.70
2023-04-21T09:06:06.195Z,0.82
2023-04-21T09:08:35.147Z,0.60
2023-04-21T09:11:02.113Z,0.63
2023-04-21T09:13:34.495Z,0.63
2023-04-21T09:16:14.925Z,0.80
2023-04-21T09:18:44.365Z,0.70
2023-04-21T09:21:16.158Z,0.90
2023-04-21T09:23:50.120Z,0.63
2023-04-21T09:26:18.214Z,0.68
2023-04-21T09:28:47.011Z,0.70
2023-04-21T09:31:22.215Z,0.47
2023-04-21T09:33:57.934Z,0.60
2023-04-21T09:36:28.831Z,0.63
2023-04-21T09:41:33.027Z,0.60
2023-04-21T09:44:04.690Z,0.50
2023-04-21T09:46:36.865Z,0.60
2023-04-21T09:49:05.471Z,0.60
2023-04-21T09:52:00.135Z,0.70
2023-04-21T09:54:29.530Z,0.47
2023-04-21T09:57:03.803Z,0.70
2023-04-21T09:59:37.035Z,0.55
2023-04-21T10:02:08.525Z,0.50
2023-04-21T10:04:38.024Z,0.80
2023-04-21T10:07:06.281Z,0.40
2023-04-21T10:09:56.582Z,0.60
2023-04-21T10:12:25.150Z,0.70
2023-04-21T10:15:06.757Z,0.63
2023-04-21T10:17:38.430Z,0.60
2023-04-21T10:20:09.743Z,0.70
2023-04-21T10:22:38.679Z,0.60
2023-04-21T10:25:10.105Z,0.90
2023-04-21T10:27:40.708Z,0.80
2023-04-21T10:30:21.126Z,0.60
2023-04-21T10:32:48.955Z,0.70
2023-04-21T10:35:22.800Z,0.98
2023-04-21T10:37:54.049Z,0.57
2023-04-21T10:40:44.280Z,0.60
2023-04-21T10:43:49.603Z,0.60
2023-04-21T10:46:37.459Z,0.90
2023-04-21T10:49:09.532Z,0.80
2023-04-21T10:52:07.334Z,0.50
2023-04-21T10:54:46.447Z,0.65
2023-04-21T10:57:18.379Z,0.60
2023-04-21T10:59:46.868Z,0.52
2023-04-21T11:02:15.841Z,0.55
2023-04-21T11:04:48.144Z,0.68
2023-04-21T11:07:23.518Z,0.70
2023-04-21T11:10:04.062Z,0.50
2023-04-21T11:12:35.460Z,0.60
2023-04-21T11:15:10.067Z,0.60
2023-04-21T11:17:39.815Z,0.60
2023-04-21T11:20:07.908Z,0.70
2023-04-21T11:22:37.764Z,0.60
2023-04-21T11:25:05.208Z,0.70
2023-04-21T11:27:32.115Z,0.70
2023-04-21T11:29:59.165Z,0.70
2023-04-21T11:32:26.184Z,0.80
2023-04-21T11:34:54.383Z,1.00
2023-04-21T11:37:25.959Z,0.77
2023-04-21T11:40:00.560Z,0.70
2023-04-21T11:42:28.319Z,1.02
2023-04-21T11:44:59.200Z,0.88
2023-04-21T11:47:28.458Z,0.73
2023-04-21T11:49:58.180Z,0.80
2023-04-21T11:52:32.908Z,0.80
2023-04-21T11:55:15.362Z,0.90
2023-04-21T11:57:43.097Z,1.27
2023-04-21T12:00:13.372Z,2.00
2023-04-21T12:02:40.842Z,3.20
2023-04-21T12:05:09.751Z,2.20
2023-04-21T12:07:39.094Z,1.40
2023-04-21T12:10:13.259Z,1.73
2023-04-21T12:12:41.856Z,3.17
2023-04-21T12:15:11.072Z,1.50
2023-04-21T12:17:45.590Z,1.20
2023-04-21T12:20:15.397Z,0.90
2023-04-21T12:22:42.417Z,0.70
2023-04-21T12:25:09.560Z,0.70
2023-04-21T12:27:36.691Z,1.17
2023-04-21T12:30:04.258Z,0.75
2023-04-21T12:32:31.417Z,1.00
2023-04-21T12:34:58.470Z,0.90
2023-04-21T12:37:25.989Z,0.80
2023-04-21T12:39:52.913Z,1.00
2023-04-21T12:42:19.815Z,0.95
2023-04-21T12:44:46.923Z,1.10
2023-04-21T12:47:13.939Z,1.00
2023-04-21T12:49:41.535Z,0.82
2023-04-21T12:52:08.484Z,1.10
2023-04-21T12:54:35.545Z,0.73
2023-04-21T12:57:03.027Z,0.90
2023-04-21T12:59:30.130Z,0.88
2023-04-21T13:01:57.273Z,0.60
2023-04-21T13:04:24.471Z,0.90
2023-04-21T13:06:52.373Z,0.80
2023-04-21T13:09:19.364Z,1.00
2023-04-21T13:11:46.347Z,0.70
2023-04-21T13:14:13.702Z,0.90
2023-04-21T13:16:41.219Z,0.75
2023-04-21T13:19:08.213Z,0.60
2023-04-21T13:21:35.220Z,0.73
2023-04-21T13:24:02.922Z,0.70
2023-04-21T13:26:33.793Z,0.80
2023-04-21T13:29:01.585Z,1.00
2023-04-21T13:31:28.863Z,0.90
2023-04-21T13:33:56.815Z,0.50
2023-04-21T13:36:23.811Z,0.85
2023-04-21T13:38:53.865Z,0.60
2023-04-21T13:41:20.764Z,0.70
2023-04-21T13:43:47.807Z,1.10
2023-04-21T13:46:14.914Z,0.73
2023-04-21T13:48:41.925Z,0.90
2023-04-21T13:51:08.824Z,0.80
2023-04-21T13:53:36.222Z,1.02
2023-04-21T13:56:03.205Z,0.60
2023-04-21T13:58:30.880Z,0.70
2023-04-21T14:00:57.801Z,0.60
2023-04-21T14:03:25.013Z,0.77
2023-04-21T14:05:52.211Z,0.60
2023-04-21T14:08:19.298Z,0.73
2023-04-21T14:10:46.238Z,0.80
2023-04-21T14:13:26.843Z,0.88
2023-04-21T14:16:00.301Z,0.60
2023-04-21T14:18:27.425Z,0.50
2023-04-21T14:20:54.384Z,0.40
2023-04-21T14:23:21.348Z,0.60
2023-04-21T14:25:48.269Z,0.63
2023-04-21T14:28:15.357Z,0.77
2023-04-21T14:30:43.170Z,0.60
2023-04-21T14:33:10.432Z,0.90
2023-04-21T14:35:37.921Z,0.57
2023-04-21T14:38:04.931Z,0.60
2023-04-21T14:40:33.030Z,0.80
2023-04-21T14:43:00.020Z,1.58
2023-04-21T14:45:27.067Z,1.07
2023-04-21T14:47:54.087Z,1.10
2023-04-21T14:50:21.692Z,0.80
2023-04-21T14:52:49.725Z,0.87
2023-04-21T14:55:17.368Z,0.70
2023-04-21T14:57:44.386Z,0.50
2023-04-21T15:00:12.225Z,0.60
2023-04-21T15:02:41.994Z,0.50
2023-04-21T15:05:09.519Z,0.53
2023-04-21T15:07:36.518Z,0.50
2023-04-21T15:10:03.652Z,0.50
2023-04-21T15:12:30.821Z,0.87
2023-04-21T15:14:57.720Z,0.70
2023-04-21T15:17:24.713Z,0.50
2023-04-21T15:19:51.800Z,0.53
2023-04-21T15:22:19.160Z,0.60
2023-04-21T15:24:46.498Z,0.70
2023-04-21T15:27:13.403Z,0.73
2023-04-21T15:29:40.731Z,0.53
2023-04-21T15:32:07.914Z,0.50
2023-04-21T15:34:34.971Z,0.63
2023-04-21T15:37:02.101Z,0.53
2023-04-21T15:39:28.980Z,0.57
2023-04-21T15:41:56.638Z,0.70
2023-04-21T15:44:23.587Z,0.63
2023-04-21T15:46:51.071Z,0.80
2023-04-21T15:49:18.068Z,0.70
2023-04-21T15:51:45.070Z,0.60
2023-04-21T15:54:12.068Z,0.43
2023-04-21T15:56:39.104Z,0.70
2023-04-21T15:59:06.644Z,0.80
2023-04-21T16:01:34.059Z,0.73
2023-04-21T16:04:01.177Z,0.80
2023-04-21T16:06:30.894Z,0.90
2023-04-21T16:08:58.324Z,0.80
2023-04-21T16:11:26.651Z,0.60
2023-04-21T16:13:53.951Z,0.90
2023-04-21T16:16:20.978Z,0.60
2023-04-21T16:18:47.993Z,0.90
2023-04-21T16:21:15.030Z,0.90
2023-04-21T16:23:42.022Z,0.80
2023-04-21T16:26:09.275Z,0.87
2023-04-21T16:28:36.305Z,0.70
2023-04-21T16:31:04.229Z,0.70
2023-04-21T16:33:31.327Z,0.60
2023-04-21T16:35:58.265Z,0.70
2023-04-21T16:38:25.544Z,0.87
2023-04-21T16:40:52.673Z,0.80
2023-04-21T16:43:19.665Z,0.70
2023-04-21T16:45:46.572Z,0.60
2023-04-21T16:48:13.880Z,0.60
2023-04-21T16:50:41.990Z,0.80
2023-04-21T16:53:09.099Z,0.50
2023-04-21T16:55:36.066Z,0.60
2023-04-21T16:58:03.108Z,0.80
2023-04-21T17:00:30.490Z,0.63
2023-04-21T17:02:57.757Z,0.40
2023-04-21T17:05:25.004Z,0.70
2023-04-21T17:07:51.957Z,0.63
2023-04-21T17:10:19.022Z,0.77
2023-04-21T17:12:46.424Z,0.70
2023-04-21T17:15:13.515Z,0.90
2023-04-21T17:17:45.104Z,0.57
2023-04-21T17:20:13.654Z,0.60
2023-04-21T17:22:41.879Z,0.73
2023-04-21T17:25:09.935Z,0.83
2023-04-21T17:27:38.784Z,0.80
2023-04-21T17:30:06.585Z,1.00
2023-04-21T17:32:34.478Z,0.73
2023-04-21T17:35:02.144Z,1.00
2023-04-21T17:37:30.450Z,0.90
2023-04-21T17:39:59.271Z,0.80
2023-04-21T17:42:29.276Z,0.63
2023-04-21T17:44:56.155Z,0.80
2023-04-21T17:47:23.268Z,0.90
2023-04-21T17:49:50.280Z,0.70
2023-04-21T17:52:17.430Z,0.90
2023-04-21T17:54:44.408Z,1.60
2023-04-21T17:57:11.999Z,2.73
2023-04-21T17:59:39.626Z,3.10
2023-04-21T18:02:07.517Z,3.63
2023-04-21T18:04:34.920Z,5.67
2023-04-21T18:07:03.044Z,2.30
2023-04-21T18:09:30.167Z,1.57
2023-04-21T18:11:58.373Z,2.60
2023-04-21T18:14:25.966Z,3.60
2023-04-21T18:16:53.099Z,1.50
2023-04-21T18:19:20.263Z,1.37
2023-04-21T18:21:47.387Z,2.10
2023-04-21T18:24:14.830Z,1.43
2023-04-21T18:26:41.852Z,1.10
2023-04-21T18:29:08.759Z,1.40
2023-04-21T18:31:36.208Z,1.60
2023-04-21T18:34:03.350Z,1.73
2023-04-21T18:36:33.034Z,1.40
2023-04-21T18:39:00.831Z,1.47
2023-04-21T18:41:28.059Z,1.20
2023-04-21T18:43:55.066Z,2.23
2023-04-21T18:46:22.313Z,3.50
2023-04-21T18:48:49.407Z,2.93
2023-04-21T18:51:16.783Z,3.70
2023-04-21T18:53:43.805Z,2.73
2023-04-21T18:56:10.793Z,2.77
2023-04-21T18:58:39.174Z,2.80
2023-04-21T19:01:06.162Z,2.50
2023-04-21T19:03:33.982Z,3.30
2023-04-21T19:06:01.135Z,1.90
2023-04-21T19:08:41.362Z,1.60
2023-04-21T19:11:11.205Z,1.70
2023-04-21T19:13:38.572Z,1.60
2023-04-21T19:16:05.748Z,1.80
2023-04-21T19:18:32.754Z,1.90
2023-04-21T19:20:59.679Z,1.47
2023-04-21T19:23:26.633Z,1.90
2023-04-21T19:25:54.551Z,1.20
2023-04-21T19:28:21.712Z,1.60
2023-04-21T19:30:48.946Z,1.30
2023-04-21T19:33:16.334Z,1.43
2023-04-21T19:35:43.533Z,1.00
2023-04-21T19:38:10.737Z,1.30
2023-04-21T19:40:37.693Z,0.90
2023-04-21T19:43:04.979Z,1.30
2023-04-21T19:45:31.995Z,1.20
2023-04-21T19:47:59.010Z,1.00
2023-04-21T19:50:26.037Z,0.97
2023-04-21T19:52:52.948Z,1.27
2023-04-21T19:55:19.800Z,3.30
2023-04-21T19:57:46.710Z,8.53
2023-04-21T20:00:14.392Z,8.23
2023-04-21T20:02:42.337Z,2.30
2023-04-21T20:05:10.187Z,2.07
2023-04-21T20:07:37.921Z,1.50
2023-04-21T20:10:06.818Z,1.20
2023-04-21T20:12:34.249Z,1.33
2023-04-21T20:15:01.810Z,1.40
2023-04-21T20:17:29.440Z,1.60
2023-04-21T20:19:56.442Z,1.67
2023-04-21T20:22:23.426Z,1.70
2023-04-21T20:24:52.104Z,1.23
2023-04-21T20:27:19.208Z,1.23
2023-04-21T20:29:46.921Z,1.47
2023-04-21T20:32:14.010Z,1.33
2023-04-21T20:34:41.025Z,1.53
2023-04-21T20:37:07.998Z,1.10
2023-04-21T20:39:34.907Z,1.17
2023-04-21T20:42:12.567Z,1.17
2023-04-21T20:44:42.448Z,1.00
2023-04-21T20:47:10.791Z,1.10
2023-04-21T20:49:38.522Z,1.10
2023-04-21T20:52:05.811Z,1.10
2023-04-21T20:54:34.758Z,1.10
2023-04-21T20:57:02.346Z,1.40
2023-04-21T20:59:29.360Z,1.30
2023-04-21T21:01:56.415Z,1.40
2023-04-21T21:04:23.664Z,1.47
2023-04-21T21:06:50.800Z,1.13
2023-04-21T21:09:18.994Z,2.00
2023-04-21T21:11:46.515Z,1.50
2023-04-21T21:14:13.793Z,1.07
2023-04-21T21:16:40.969Z,1.40
2023-04-21T21:19:07.895Z,1.20
2023-04-21T21:21:34.840Z,1.60
2023-04-21T21:24:01.839Z,1.63
2023-04-21T21:26:29.460Z,1.43
2023-04-21T21:28:57.162Z,2.20
2023-04-21T21:31:25.604Z,1.80
2023-04-21T21:33:52.802Z,1.63
2023-04-21T21:36:19.861Z,2.43
2023-04-21T21:38:46.772Z,2.10
2023-04-21T21:41:14.163Z,2.20
2023-04-21T21:43:41.307Z,1.80
2023-04-21T21:46:09.153Z,2.10
2023-04-21T21:48:36.253Z,2.30
2023-04-21T21:51:04.403Z,2.17
2023-04-21T21:53:32.519Z,2.33
2023-04-21T21:56:00.214Z,2.60
2023-04-21T21:58:27.648Z,1.70
2023-04-21T22:00:55.228Z,1.40
2023-04-21T22:03:22.542Z,1.30
2023-04-21T22:05:50.984Z,1.37
2023-04-21T22:08:17.957Z,1.50
2023-04-21T22:10:45.457Z,1.33
2023-04-21T22:13:12.442Z,1.00
2023-04-21T22:15:39.440Z,1.50
2023-04-21T22:18:08.048Z,1.50
2023-04-21T22:20:35.667Z,1.60
2023-04-21T22:23:03.256Z,1.47
2023-04-21T22:25:30.690Z,2.00
2023-04-21T22:27:58.165Z,1.90
2023-04-21T22:30:25.794Z,1.20
2023-04-21T22:32:52.968Z,1.50
2023-04-21T22:35:20.071Z,1.70
2023-04-21T22:37:47.039Z,1.90
2023-04-21T22:40:14.050Z,1.83
2023-04-21T22:42:41.065Z,1.50
2023-04-21T22:45:08.549Z,1.47
2023-04-21T22:47:35.687Z,1.47
2023-04-21T22:50:04.402Z,1.10
2023-04-21T22:52:31.477Z,1.43
2023-04-21T22:54:58.458Z,1.20
2023-04-21T22:57:25.714Z,1.30
2023-04-21T22:59:52.867Z,1.07
2023-04-21T23:02:19.964Z,1.40
2023-04-21T23:04:46.917Z,1.50
2023-04-21T23:07:14.040Z,1.30
2023-04-21T23:09:41.215Z,1.50
2023-04-21T23:12:08.355Z,1.63
2023-04-21T23:14:35.520Z,1.57
2023-04-21T23:17:02.640Z,1.27
2023-04-21T23:19:29.652Z,1.33
2023-04-21T23:21:56.702Z,1.40
2023-04-21T23:24:23.580Z,1.60
2023-04-21T23:26:50.731Z,1.50
2023-04-21T23:29:18.511Z,1.40
2023-04-21T23:31:45.445Z,1.40
2023-04-21T23:34:12.452Z,1.40
2023-04-21T23:36:39.382Z,1.60
2023-04-21T23:39:06.304Z,1.30
2023-04-21T23:41:33.412Z,2.00
2023-04-21T23:44:00.569Z,1.43
2023-04-21T23:46:27.605Z,1.50
2023-04-21T23:48:54.967Z,1.40
2023-04-21T23:51:22.382Z,1.73
2023-04-21T23:53:49.368Z,1.57
2023-04-21T23:56:16.405Z,1.83
2023-04-21T23:58:43.346Z,1.70
